Time;durP1;ratioP1;P1;durP2;ratioP2;P2;SDS_P1;SDS_P2;PMS_P1;PMS_P2;Temp;Humidity;BMP_temperature;BMP_pressure;BME280_temperature;BME280_humidity;BME280_pressure;Samples;Min_cycle;Max_cycle;Signal;HPM_P1;HPM_P2
2022/07/16 00:03:46;;;;;;;11.77;4.13;;;;;;;18.88;66.35;102063.63;4995520;28;20185;-77
2022/07/16 00:06:11;;;;;;;8.45;3.30;;;;;;;18.85;66.37;102066.75;4995246;28;20028;-78
2022/07/16 00:08:36;;;;;;;9.55;3.13;;;;;;;18.81;66.40;102060.03;4993973;28;20398;-78
2022/07/16 00:11:02;;;;;;;5.57;2.70;;;;;;;18.81;66.37;102065.50;4995072;28;20468;-77
2022/07/16 00:13:27;;;;;;;5.97;2.42;;;;;;;18.76;66.33;102059.81;4995485;28;20062;-78
2022/07/16 00:15:54;;;;;;;6.28;2.55;;;;;;;18.73;66.64;102062.94;4995556;28;20460;-77
2022/07/16 00:21:04;;;;;;;7.43;2.70;;;;;;;18.71;66.56;102059.56;4995342;28;20097;-78
2022/07/16 00:23:29;;;;;;;6.80;2.22;;;;;;;18.64;66.82;102060.41;4995366;28;20467;-77
2022/07/16 00:25:54;;;;;;;6.95;2.45;;;;;;;18.64;66.91;102054.94;4977276;28;20121;-77
2022/07/16 00:28:20;;;;;;;5.15;2.10;;;;;;;18.58;67.04;102063.94;4995449;28;20235;-77
2022/07/16 00:30:45;;;;;;;6.45;2.00;;;;;;;18.58;67.27;102061.19;4995247;28;20037;-77
2022/07/16 00:33:10;;;;;;;7.55;2.13;;;;;;;18.53;67.16;102058.25;4996031;28;20023;-78
2022/07/16 00:35:36;;;;;;;8.75;2.50;;;;;;;18.52;67.39;102056.56;4995315;28;20062;-76
2022/07/16 00:38:01;;;;;;;4.00;2.00;;;;;;;18.52;67.40;102061.19;4994619;28;20521;-77
2022/07/16 00:40:26;;;;;;;8.63;2.25;;;;;;;18.52;67.90;102069.38;4994115;28;20093;-77
2022/07/16 00:42:52;;;;;;;7.97;2.40;;;;;;;18.52;68.22;102064.75;4994934;28;20114;-78
2022/07/16 00:45:17;;;;;;;5.93;2.20;;;;;;;18.54;68.13;102062.66;4994810;28;20026;-79
2022/07/16 00:47:42;;;;;;;6.78;2.30;;;;;;;18.58;68.56;102072.09;4994843;28;20065;-78
2022/07/16 00:50:08;;;;;;;7.35;2.42;;;;;;;18.65;68.68;102072.13;4994800;28;20058;-78
2022/07/16 00:52:35;;;;;;;4.40;2.10;;;;;;;18.70;68.80;102063.34;4995104;28;20031;-77
2022/07/16 00:55:00;;;;;;;8.23;2.57;;;;;;;18.75;68.87;102069.88;4995302;28;20067;-78
2022/07/16 00:57:26;;;;;;;11.00;1.88;;;;;;;18.80;69.24;102066.53;4994857;28;20335;-78
2022/07/16 00:59:51;;;;;;;7.30;2.50;;;;;;;18.87;69.12;102070.09;5001655;28;20100;-77
2022/07/16 01:02:16;;;;;;;8.35;2.38;;;;;;;18.91;69.13;102065.94;5001296;28;20037;-79
2022/07/16 01:04:42;;;;;;;6.35;2.33;;;;;;;18.98;69.18;102063.19;4993676;28;20343;-78
2022/07/16 01:07:08;;;;;;;6.88;2.60;;;;;;;19.03;69.11;102063.41;4992674;28;20030;-77
2022/07/16 01:09:34;;;;;;;12.07;2.58;;;;;;;19.05;69.10;102061.31;4994444;28;20464;-77
2022/07/16 01:11:59;;;;;;;9.10;2.75;;;;;;;19.08;69.11;102064.47;4994266;28;20034;-77
2022/07/16 01:14:25;;;;;;;6.13;2.55;;;;;;;19.09;68.90;102070.78;4995100;28;20137;-78
2022/07/16 01:16:51;;;;;;;9.52;3.20;;;;;;;19.05;69.33;102067.63;4994627;28;20084;-78
2022/07/16 01:19:16;;;;;;;14.10;3.22;;;;;;;19.05;69.41;102064.06;4994633;28;20049;-77
2022/07/16 01:21:43;;;;;;;8.02;2.70;;;;;;;19.09;69.56;102065.34;4994605;28;20053;-78
2022/07/16 01:24:08;;;;;;;11.77;2.80;;;;;;;19.07;69.61;102064.69;4994567;28;20034;-77
2022/07/16 01:26:34;;;;;;;4.68;2.05;;;;;;;19.05;69.31;102056.69;4994752;28;20427;-77
2022/07/16 01:28:59;;;;;;;14.27;2.83;;;;;;;19.02;69.10;102061.75;4994132;28;20030;-77
2022/07/16 01:31:24;;;;;;;5.80;2.03;;;;;;;19.03;69.02;102064.25;4994498;28;20369;-78
2022/07/16 01:36:34;;;;;;;5.32;1.77;;;;;;;19.02;68.57;102073.50;4994053;28;20457;-78
2022/07/16 01:38:59;;;;;;;7.15;1.90;;;;;;;18.99;67.89;102063.00;4993955;28;20019;-77
2022/07/16 01:41:25;;;;;;;6.78;1.73;;;;;;;18.93;68.00;102060.25;4992380;28;20038;-78
2022/07/16 01:43:50;;;;;;;5.43;1.73;;;;;;;18.87;67.96;102064.66;4993516;28;20031;-78
2022/07/16 01:46:15;;;;;;;6.18;1.90;;;;;;;18.85;68.02;102070.34;4992661;28;20114;-78
2022/07/16 01:48:41;;;;;;;7.82;1.80;;;;;;;18.78;68.46;102069.47;4993942;28;20351;-77
2022/07/16 01:51:06;;;;;;;5.07;1.80;;;;;;;18.73;68.61;102073.84;4993677;28;20023;-77
2022/07/16 01:53:31;;;;;;;7.32;1.98;;;;;;;18.69;69.57;102072.56;4994386;28;20084;-77
2022/07/16 01:55:58;;;;;;;6.65;2.15;;;;;;;18.60;70.11;102072.75;4994106;28;20048;-77
2022/07/16 01:58:24;;;;;;;5.97;2.40;;;;;;;18.56;70.65;102074.22;4993623;28;20041;-77
2022/07/16 02:00:49;;;;;;;8.00;2.58;;;;;;;18.53;70.78;102082.78;4992766;28;20130;-76
2022/07/16 02:03:15;;;;;;;10.70;2.40;;;;;;;18.49;71.40;102076.06;4993744;28;20470;-77
2022/07/16 02:05:41;;;;;;;6.82;2.45;;;;;;;18.45;72.01;102087.59;4993594;28;20041;-77
2022/07/16 02:08:06;;;;;;;6.68;2.17;;;;;;;18.40;72.15;102083.59;4993336;28;20133;-77
2022/07/16 02:10:32;;;;;;;6.00;2.20;;;;;;;18.38;72.18;102090.28;4993481;28;20113;-77
2022/07/16 02:12:57;;;;;;;4.20;2.00;;;;;;;18.31;72.45;102092.97;4991738;28;20505;-77
2022/07/16 02:15:23;;;;;;;6.93;1.88;;;;;;;18.26;72.84;102086.47;4992340;28;20092;-77
2022/07/16 02:17:48;;;;;;;6.55;2.17;;;;;;;18.25;72.73;102087.50;4992734;28;20036;-77
2022/07/16 02:20:13;;;;;;;5.90;1.73;;;;;;;18.18;72.70;102101.09;4993136;28;20061;-78
2022/07/16 02:22:39;;;;;;;7.32;1.70;;;;;;;18.11;73.04;102092.88;4993282;28;20026;-78
2022/07/16 02:25:06;;;;;;;2.65;1.40;;;;;;;18.07;72.90;102099.78;5000577;28;20022;-77
2022/07/16 02:27:32;;;;;;;4.00;1.13;;;;;;;18.02;72.90;102105.00;4999724;28;20030;-77
2022/07/16 02:29:59;;;;;;;5.03;1.50;;;;;;;17.97;73.22;102112.91;4996506;28;20022;-77
2022/07/16 02:32:24;;;;;;;5.47;1.45;;;;;;;17.99;73.40;102106.22;4993163;28;20034;-77
2022/07/16 02:34:50;;;;;;;3.30;1.40;;;;;;;17.99;73.59;102111.69;5042304;23;20098;-76
2022/07/16 02:37:15;;;;;;;5.43;1.40;;;;;;;18.02;73.79;102110.44;5001803;28;20054;-76
2022/07/16 02:39:40;;;;;;;3.10;1.38;;;;;;;18.03;73.51;102114.84;4989058;28;20030;-75
2022/07/16 02:42:06;;;;;;;4.32;1.30;;;;;;;17.98;73.69;102109.13;4983546;28;20066;-77
2022/07/16 02:44:31;;;;;;;4.20;1.50;;;;;;;17.93;73.99;102115.22;4999465;28;20493;-75
2022/07/16 02:46:57;;;;;;;7.57;1.42;;;;;;;17.88;73.72;102122.31;5004773;28;20537;-76
2022/07/16 02:49:22;;;;;;;3.00;1.30;;;;;;;17.82;74.23;102123.91;5004148;28;20030;-76
2022/07/16 02:51:47;;;;;;;5.03;1.20;;;;;;;17.73;74.71;102128.66;4994839;28;20519;-75
2022/07/16 02:54:13;;;;;;;1.83;1.10;;;;;;;17.71;74.87;102124.44;4985815;28;20047;-78
2022/07/16 02:56:38;;;;;;;4.50;1.35;;;;;;;17.69;75.16;102127.38;4985705;28;20044;-76
2022/07/16 02:59:03;;;;;;;2.35;1.20;;;;;;;17.65;75.26;102131.53;4989909;28;20030;-76
2022/07/16 03:01:29;;;;;;;5.78;1.60;;;;;;;17.67;75.50;102128.63;4986635;28;20034;-76
2022/07/16 03:03:54;;;;;;;5.22;1.60;;;;;;;17.73;75.45;102130.53;5003498;28;20031;-76
2022/07/16 03:06:20;;;;;;;3.63;1.45;;;;;;;17.70;75.36;102134.50;4986676;28;20026;-77
2022/07/16 03:08:46;;;;;;;6.65;1.70;;;;;;;17.69;75.24;102129.22;4969767;28;20038;-76
2022/07/16 03:11:11;;;;;;;4.47;1.60;;;;;;;17.64;75.43;102135.28;4987330;28;20061;-76
2022/07/16 03:13:37;;;;;;;7.68;1.70;;;;;;;17.59;75.82;102137.75;4987706;28;20086;-76
2022/07/16 03:16:02;;;;;;;4.70;1.35;;;;;;;17.55;75.92;102133.75;4985586;28;20037;-76
2022/07/16 03:18:28;;;;;;;3.13;1.40;;;;;;;17.54;76.07;102135.63;4986289;28;20031;-76
2022/07/16 03:20:53;;;;;;;5.20;1.52;;;;;;;17.57;76.21;102139.84;4984455;28;20501;-76
2022/07/16 03:23:18;;;;;;;5.35;1.63;;;;;;;17.55;76.55;102137.28;4985848;28;20033;-76
2022/07/16 03:25:44;;;;;;;4.50;1.75;;;;;;;17.54;76.64;102138.34;4985976;28;20023;-77
2022/07/16 03:28:09;;;;;;;3.65;1.73;;;;;;;17.52;76.95;102137.69;4986758;28;20027;-77
2022/07/16 03:30:35;;;;;;;22.20;3.05;;;;;;;17.49;77.44;102139.97;4984811;28;20299;-78
2022/07/16 03:33:01;;;;;;;7.57;1.55;;;;;;;17.49;77.61;102143.53;4990210;28;20034;-76
2022/07/16 03:35:26;;;;;;;5.55;1.77;;;;;;;17.50;77.92;102142.47;4989364;28;20051;-77
2022/07/16 03:40:35;;;;;;;8.20;1.60;;;;;;;17.61;78.08;102152.00;4986670;28;20045;-76
2022/07/16 03:43:01;;;;;;;5.63;1.90;;;;;;;17.68;77.97;102152.91;4985570;28;20034;-76
2022/07/16 03:45:27;;;;;;;5.68;1.77;;;;;;;17.74;77.61;102154.00;4988443;28;20128;-77
2022/07/16 03:47:52;;;;;;;7.68;1.88;;;;;;;17.74;77.20;102156.72;4987858;28;20049;-76
2022/07/16 03:50:18;;;;;;;5.53;1.38;;;;;;;17.75;76.50;102156.53;4984889;28;20507;-76
2022/07/16 03:52:44;;;;;;;5.05;1.27;;;;;;;17.71;75.88;102160.66;4988976;28;20039;-76
2022/07/16 03:55:10;;;;;;;3.15;1.13;;;;;;;17.69;75.42;102160.06;4987022;28;20049;-76
2022/07/16 03:57:35;;;;;;;5.07;1.30;;;;;;;17.68;75.18;102169.22;4988159;28;20031;-76
2022/07/16 04:00:00;;;;;;;3.47;1.00;;;;;;;17.69;74.92;102170.94;4987727;28;20087;-76
2022/07/16 04:02:26;;;;;;;6.22;1.13;;;;;;;17.69;75.03;102165.50;4986611;28;20022;-76
2022/07/16 04:04:51;;;;;;;5.30;1.15;;;;;;;17.68;74.83;102176.56;4984338;28;20555;-77
2022/07/16 04:07:16;;;;;;;2.85;1.00;;;;;;;17.70;74.58;102178.06;4988359;28;20027;-76
2022/07/16 04:09:41;;;;;;;4.20;1.05;;;;;;;17.73;74.12;102177.66;4987020;28;20158;-76
2022/07/16 04:12:07;;;;;;;5.57;1.00;;;;;;;17.77;73.99;102184.41;4982888;28;20027;-77
2022/07/16 04:14:32;;;;;;;5.82;1.02;;;;;;;17.78;73.23;102186.09;4986875;28;20045;-77
2022/07/16 04:16:58;;;;;;;4.72;1.10;;;;;;;17.83;72.75;102187.41;4984563;28;20061;-76
2022/07/16 04:19:23;;;;;;;3.92;1.25;;;;;;;17.86;72.80;102189.75;4987511;28;20096;-76
2022/07/16 04:21:48;;;;;;;4.40;1.13;;;;;;;17.84;73.03;102197.25;4983119;28;20114;-76
2022/07/16 04:24:13;;;;;;;8.80;1.60;;;;;;;17.88;72.55;102198.56;4986481;28;20057;-76
2022/07/16 04:26:39;;;;;;;3.75;1.17;;;;;;;17.86;72.54;102200.63;4988883;28;20041;-76
2022/07/16 04:29:04;;;;;;;4.13;1.38;;;;;;;17.84;72.63;102194.53;4988723;28;20034;-77
2022/07/16 04:31:29;;;;;;;7.63;1.40;;;;;;;17.84;72.81;102205.44;5005079;28;20042;-77
2022/07/16 04:33:55;;;;;;;8.52;1.85;;;;;;;17.91;72.60;102207.16;5004064;28;20051;-77
2022/07/16 04:36:21;;;;;;;3.22;0.90;;;;;;;17.86;72.58;102214.25;4988379;28;20026;-78
2022/07/16 04:38:46;;;;;;;3.83;1.02;;;;;;;17.89;72.55;102214.69;4986322;28;20250;-77
2022/07/16 04:41:11;;;;;;;12.23;2.00;;;;;;;17.94;72.53;102223.13;4990386;28;20046;-76
2022/07/16 04:43:37;;;;;;;3.65;1.23;;;;;;;17.93;71.81;102223.28;4993021;28;20027;-77
2022/07/16 04:46:02;;;;;;;6.32;1.13;;;;;;;17.94;71.76;102214.94;4991121;28;20151;-77
2022/07/16 04:48:27;;;;;;;4.03;1.20;;;;;;;17.95;70.88;102218.50;4992036;28;20034;-77
2022/07/16 04:50:53;;;;;;;4.68;0.90;;;;;;;17.97;69.81;102221.88;4996748;28;20031;-77
2022/07/16 04:53:18;;;;;;;7.20;1.65;;;;;;;18.04;69.23;102225.50;4998595;28;20026;-77
2022/07/16 04:55:43;;;;;;;10.93;1.52;;;;;;;18.02;69.07;102211.22;4998849;28;20023;-77
2022/07/16 04:58:09;;;;;;;4.70;1.65;;;;;;;18.11;68.70;102223.66;4997366;28;20041;-77
2022/07/16 05:00:35;;;;;;;4.25;1.35;;;;;;;18.14;68.17;102223.28;4993307;28;20030;-77
2022/07/16 05:03:00;;;;;;;5.78;1.20;;;;;;;18.16;68.34;102225.78;4990671;28;20023;-77
2022/07/16 05:05:31;;;;;;;3.28;1.30;;;;;;;18.19;67.38;102222.66;5004269;28;20094;-77
2022/07/16 05:07:58;;;;;;;3.72;1.10;;;;;;;18.23;65.78;102228.56;4995634;28;20058;-76
2022/07/16 05:10:24;;;;;;;8.15;1.48;;;;;;;18.21;64.79;102224.16;4991967;28;20034;-76
2022/07/16 05:12:49;;;;;;;5.15;1.50;;;;;;;18.24;65.39;102227.53;4987220;28;20050;-76
2022/07/16 05:15:15;;;;;;;3.90;1.30;;;;;;;18.30;65.32;102232.16;4990668;28;20062;-77
2022/07/16 05:17:40;;;;;;;9.63;1.85;;;;;;;18.34;65.13;102233.47;4993079;28;20038;-77
2022/07/16 05:20:07;;;;;;;4.53;1.30;;;;;;;18.42;64.83;102238.75;4993224;28;20057;-76
2022/07/16 05:22:32;;;;;;;5.18;1.50;;;;;;;18.50;64.51;102235.88;4982838;28;20042;-76
2022/07/16 05:24:58;;;;;;;8.27;2.03;;;;;;;18.55;64.98;102236.09;4984708;28;20030;-76
2022/07/16 05:27:23;;;;;;;4.22;1.13;;;;;;;18.60;63.94;102235.50;4986887;28;20023;-76
2022/07/16 05:29:48;;;;;;;5.25;1.40;;;;;;;18.65;64.25;102235.75;4989802;28;20007;-76
2022/07/16 05:32:14;;;;;;;5.10;1.52;;;;;;;18.61;63.61;102245.34;4992979;28;20112;-75
2022/07/16 05:34:39;;;;;;;12.07;2.10;;;;;;;18.67;63.11;102249.16;4985669;28;20058;-76
2022/07/16 05:37:04;;;;;;;6.45;1.67;;;;;;;18.68;63.59;102245.41;4983596;28;20070;-76
2022/07/16 05:39:30;;;;;;;7.80;1.50;;;;;;;18.71;62.97;102253.19;4984335;28;20037;-76
2022/07/16 05:41:56;;;;;;;4.85;1.70;;;;;;;18.72;62.25;102247.53;4988679;28;20137;-76
2022/07/16 05:44:21;;;;;;;13.18;2.22;;;;;;;18.81;62.58;102256.41;4984347;28;20015;-76
2022/07/16 05:46:46;;;;;;;5.80;1.10;;;;;;;18.86;62.22;102256.66;4986386;28;20038;-77
2022/07/16 05:49:12;;;;;;;6.57;1.40;;;;;;;18.86;61.50;102254.75;4992002;28;20106;-76
2022/07/16 05:51:37;;;;;;;11.35;1.83;;;;;;;18.85;61.70;102253.09;4992274;28;20128;-76
2022/07/16 05:54:02;;;;;;;11.38;1.75;;;;;;;18.92;61.31;102264.03;4991622;28;20034;-77
2022/07/16 05:56:28;;;;;;;9.70;1.75;;;;;;;18.95;61.12;102257.31;4986203;28;20058;-77
2022/07/16 05:58:55;;;;;;;6.72;1.40;;;;;;;19.06;60.93;102265.78;4989136;28;20026;-77
2022/07/16 06:01:21;;;;;;;;;;;;;;;19.20;60.58;102269.41;4989655;28;20061;-77
2022/07/16 06:03:46;;;;;;;3.65;1.35;;;;;;;19.29;59.74;102270.03;4985854;28;20000;-77
2022/07/16 06:06:11;;;;;;;12.32;1.58;;;;;;;19.34;59.58;102270.28;4988040;28;20030;-77
2022/07/16 06:08:37;;;;;;;7.32;1.50;;;;;;;19.43;59.60;102277.25;4986059;28;20038;-76
2022/07/16 06:11:02;;;;;;;5.53;1.33;;;;;;;19.37;58.83;102275.31;4987463;28;20027;-75
2022/07/16 06:13:27;;;;;;;7.13;1.23;;;;;;;19.33;57.95;102271.31;4987745;28;20041;-76
2022/07/16 06:15:53;;;;;;;4.70;1.17;;;;;;;19.44;56.81;102278.91;4988589;28;20034;-76
2022/07/16 06:18:18;;;;;;;7.45;1.45;;;;;;;19.48;56.19;102279.34;4989667;28;20039;-76
2022/07/16 06:20:43;;;;;;;7.25;1.50;;;;;;;19.69;56.27;102281.09;4989375;28;20078;-76
2022/07/16 06:23:09;;;;;;;4.97;1.30;;;;;;;19.93;55.81;102283.25;4988939;28;20011;-76
2022/07/16 06:25:34;;;;;;;7.65;1.30;;;;;;;20.22;56.06;102286.59;4988921;28;20054;-76
2022/07/16 06:27:59;;;;;;;7.90;1.60;;;;;;;20.70;54.48;102289.09;4984842;28;20082;-77
2022/07/16 06:30:25;;;;;;;8.15;1.58;;;;;;;21.38;52.25;102293.25;4990574;28;20027;-77
2022/07/16 06:32:50;;;;;;;5.78;1.30;;;;;;;22.00;50.13;102297.06;4987937;28;20105;-77
2022/07/16 06:35:16;;;;;;;5.13;1.15;;;;;;;22.21;49.14;102306.00;4991280;28;20055;-76
2022/07/16 06:37:42;;;;;;;5.65;1.38;;;;;;;22.30;48.90;102315.63;4988432;28;20042;-76
2022/07/16 06:40:08;;;;;;;6.05;1.27;;;;;;;22.25;47.67;102313.56;4987737;28;20415;-76
2022/07/16 06:42:34;;;;;;;7.72;1.05;;;;;;;22.25;47.57;102318.19;4987915;28;20348;-77
2022/07/16 06:45:00;;;;;;;7.25;0.88;;;;;;;22.14;46.64;102327.97;4987604;28;20081;-76
2022/07/16 06:47:26;;;;;;;5.93;1.25;;;;;;;22.40;46.68;102320.59;4985296;28;20117;-76
2022/07/16 06:49:52;;;;;;;6.57;1.00;;;;;;;22.81;45.92;102324.66;4990613;28;20122;-76
2022/07/16 06:52:17;;;;;;;5.47;0.90;;;;;;;23.35;45.36;102325.69;4987338;28;20022;-77
2022/07/16 06:54:43;;;;;;;6.15;1.20;;;;;;;23.72;43.99;102334.72;4989198;28;20019;-77
2022/07/16 06:57:08;;;;;;;6.68;1.33;;;;;;;24.00;43.27;102331.34;4989402;28;20035;-76
2022/07/16 06:59:34;;;;;;;4.88;1.20;;;;;;;24.05;41.75;102344.41;4989054;28;20023;-77
2022/07/16 07:01:59;;;;;;;3.67;0.80;;;;;;;24.23;42.13;102340.72;4989245;28;20105;-77
2022/07/16 07:04:25;;;;;;;3.38;1.40;;;;;;;24.59;40.38;102339.69;4990589;28;20042;-77
2022/07/16 07:06:50;;;;;;;4.32;1.15;;;;;;;25.39;39.43;102343.66;4989609;28;20031;-78
2022/07/16 07:09:15;;;;;;;2.63;0.70;;;;;;;25.58;38.94;102347.91;4989640;28;20050;-77
2022/07/16 07:11:42;;;;;;;3.40;0.98;;;;;;;25.38;39.27;102344.72;4989194;28;20059;-78
2022/07/16 07:14:10;;;;;;;5.67;1.67;;;;;;;25.71;39.23;102351.44;4990285;28;20033;-76
2022/07/16 07:16:36;;;;;;;4.35;1.20;;;;;;;26.63;37.69;102353.88;4987238;28;20042;-77
2022/07/16 07:19:01;;;;;;;8.38;1.00;;;;;;;27.02;36.91;102361.34;4986884;28;20030;-77
2022/07/16 07:21:27;;;;;;;7.30;1.05;;;;;;;27.58;35.85;102360.13;4989090;28;20039;-78
2022/07/16 07:23:53;;;;;;;4.38;1.00;;;;;;;27.89;35.10;102360.47;4989924;28;20038;-79
2022/07/16 07:26:18;;;;;;;3.28;1.05;;;;;;;27.82;35.40;102359.00;4998870;28;20133;-76
2022/07/16 07:28:44;;;;;;;5.05;1.25;;;;;;;27.48;35.76;102360.00;4983201;28;20031;-77
2022/07/16 07:31:09;;;;;;;4.63;1.00;;;;;;;27.91;34.50;102357.44;4983670;28;20035;-80
2022/07/16 07:33:36;;;;;;;5.85;1.13;;;;;;;27.85;34.88;102364.00;4986012;28;20547;-77
2022/07/16 07:36:02;;;;;;;5.72;1.20;;;;;;;27.64;34.96;102363.75;4992852;28;20192;-77
2022/07/16 07:38:27;;;;;;;8.27;1.10;;;;;;;27.84;34.52;102367.88;5001460;28;20126;-79
2022/07/16 07:40:53;;;;;;;6.45;1.30;;;;;;;27.07;35.60;102361.41;4983896;28;20033;-77
2022/07/16 07:43:18;;;;;;;5.60;1.20;;;;;;;27.66;35.14;102364.34;4987619;28;20019;-78
2022/07/16 07:45:44;;;;;;;4.75;1.33;;;;;;;28.50;33.99;102370.44;4987180;28;20035;-78
2022/07/16 07:48:09;;;;;;;6.25;1.17;;;;;;;29.55;32.20;102364.88;4986768;28;20056;-77
2022/07/16 07:50:35;;;;;;;3.47;0.90;;;;;;;29.88;31.63;102376.63;4986629;28;20393;-76
2022/07/16 07:53:00;;;;;;;3.95;1.20;;;;;;;29.77;31.23;102377.72;4980594;28;20371;-76
2022/07/16 07:55:26;;;;;;;3.65;0.90;;;;;;;29.85;30.54;102380.78;4987886;28;20069;-80
2022/07/16 07:57:51;;;;;;;6.32;1.52;;;;;;;29.71;30.87;102382.41;4989162;28;20074;-79
2022/07/16 08:00:17;;;;;;;9.18;1.58;;;;;;;29.51;31.34;102385.94;4980612;28;20033;-77
2022/07/16 08:02:43;;;;;;;4.07;1.10;;;;;;;29.40;31.77;102385.06;4979772;28;20475;-76
2022/07/16 08:05:11;;;;;;;6.82;1.30;;;;;;;29.87;30.20;102391.63;4987298;28;20110;-77
2022/07/16 08:07:36;;;;;;;2.15;1.02;;;;;;;30.27;29.39;102399.16;4990322;28;20042;-76
2022/07/16 08:10:02;;;;;;;5.57;1.10;;;;;;;30.04;29.92;102405.22;4986760;28;20018;-76
2022/07/16 08:12:27;;;;;;;7.30;1.30;;;;;;;29.75;30.07;102402.94;4986423;28;20035;-78
2022/07/16 08:14:53;;;;;;;10.35;1.20;;;;;;;30.07;29.90;102402.75;4990446;28;20309;-79
2022/07/16 08:17:19;;;;;;;3.87;1.03;;;;;;;30.01;30.08;102414.09;4987105;28;20062;-77
2022/07/16 08:19:44;;;;;;;7.10;1.17;;;;;;;29.71;30.57;102411.00;4987139;28;20030;-77
2022/07/16 08:22:09;;;;;;;4.73;1.30;;;;;;;30.47;29.92;102414.19;4984318;28;20030;-78
2022/07/16 08:27:19;;;;;;;4.57;1.33;;;;;;;31.60;27.39;102423.91;4988192;28;20038;-78
2022/07/16 08:29:44;;;;;;;13.07;1.40;;;;;;;31.18;28.40;102433.53;4988766;28;20019;-78
2022/07/16 08:32:09;;;;;;;3.80;0.90;;;;;;;31.28;28.14;102430.72;4985094;28;20125;-78
2022/07/16 08:34:35;;;;;;;4.80;1.30;;;;;;;30.55;29.58;102427.50;4982033;28;20055;-77
2022/07/16 08:37:00;;;;;;;5.13;1.00;;;;;;;30.12;29.30;102430.53;4985232;28;20093;-76
2022/07/16 08:39:27;;;;;;;6.30;1.30;;;;;;;30.09;29.45;102427.44;4985282;28;20030;-76
2022/07/16 08:41:53;;;;;;;5.63;1.20;;;;;;;30.75;28.17;102438.56;4990195;28;20031;-78
2022/07/16 08:44:19;;;;;;;7.68;1.48;;;;;;;30.81;28.37;102445.84;4985458;28;20015;-77
2022/07/16 08:46:44;;;;;;;3.93;1.00;;;;;;;31.07;26.66;102445.81;5007153;28;20026;-79
2022/07/16 08:49:10;;;;;;;4.33;0.90;;;;;;;30.44;28.10;102448.91;4987086;28;20030;-76
2022/07/16 08:51:39;;;;;;;4.28;1.20;;;;;;;29.75;28.65;102451.00;4989786;28;20498;-77
2022/07/16 08:54:21;;;;;;;4.78;1.10;;;;;;;29.59;29.72;102460.31;4982604;28;20023;-76
2022/07/16 08:56:48;;;;;;;6.03;1.13;;;;;;;30.22;28.10;102457.44;4987612;28;20074;-77
2022/07/16 08:59:14;;;;;;;5.35;1.30;;;;;;;30.39;28.17;102448.91;4986404;28;20035;-79
2022/07/16 09:01:40;;;;;;;5.20;0.97;;;;;;;30.35;28.15;102473.59;4987609;28;20049;-77
2022/07/16 09:04:05;;;;;;;5.17;1.47;;;;;;;29.79;28.99;102470.69;4999249;28;20356;-76
2022/07/16 09:06:31;;;;;;;3.17;0.90;;;;;;;29.76;29.57;102465.69;4984806;28;20031;-77
2022/07/16 09:08:57;;;;;;;6.38;1.25;;;;;;;30.27;28.46;102465.81;4985795;28;20047;-77
2022/07/16 09:11:25;;;;;;;4.33;1.07;;;;;;;29.88;29.72;102474.59;4983072;28;20491;-76
2022/07/16 09:14:04;;;;;;;4.47;1.30;;;;;;;30.17;29.06;102474.09;4984279;28;20033;-77
2022/07/16 09:16:36;;;;;;;7.72;1.05;;;;;;;30.17;28.94;102471.31;4984053;28;20023;-76
2022/07/16 09:19:03;;;;;;;3.83;1.10;;;;;;;30.21;28.35;102478.00;4980955;28;20070;-78
2022/07/16 09:21:28;;;;;;;4.68;1.25;;;;;;;30.18;27.94;102484.94;4982028;28;20031;-77
2022/07/16 09:23:54;;;;;;;6.57;1.30;;;;;;;30.32;28.86;102476.94;4983055;28;20026;-78
2022/07/16 09:26:19;;;;;;;5.00;1.30;;;;;;;30.31;28.59;102491.13;4981433;28;20150;-78
2022/07/16 09:28:47;;;;;;;7.15;1.45;;;;;;;31.03;27.96;102483.63;4984070;28;20089;-76
2022/07/16 09:31:36;;;;;;;8.52;1.80;;;;;;;31.06;28.17;102494.19;4986328;28;20037;-77
2022/07/16 09:34:11;;;;;;;6.40;1.50;;;;;;;31.74;26.79;102492.88;4991510;28;20053;-79
2022/07/16 09:36:37;;;;;;;4.43;1.20;;;;;;;31.38;27.48;102490.22;4993279;28;20132;-79
2022/07/16 09:39:05;;;;;;;4.63;1.00;;;;;;;30.69;27.79;102498.06;4983258;28;20026;-78
2022/07/16 09:41:42;;;;;;;4.65;1.23;;;;;;;30.76;27.82;102501.41;4987439;28;20029;-81
2022/07/16 09:44:14;;;;;;;7.95;1.23;;;;;;;30.66;28.06;102506.97;4982036;28;20034;-77
2022/07/16 09:46:39;;;;;;;7.07;1.33;;;;;;;31.24;27.52;102507.50;4984504;28;20093;-78
2022/07/16 09:49:04;;;;;;;4.97;1.17;;;;;;;31.68;26.08;102506.81;4986428;28;20031;-77
2022/07/16 09:51:32;;;;;;;7.07;1.23;;;;;;;30.95;25.95;102509.22;4982561;28;20031;-77
2022/07/16 09:53:58;;;;;;;6.68;1.20;;;;;;;30.98;27.08;102519.78;4981771;28;20449;-77
2022/07/16 09:56:25;;;;;;;5.53;1.20;;;;;;;31.33;26.69;102510.50;4988330;28;20086;-79
2022/07/16 09:58:56;;;;;;;6.55;1.23;;;;;;;30.84;27.44;102514.78;4993435;28;20039;-79
2022/07/16 10:01:22;;;;;;;6.75;1.80;;;;;;;30.85;28.18;102512.81;4993346;28;20038;-77
2022/07/16 10:03:49;;;;;;;4.33;1.13;;;;;;;30.40;28.42;102509.72;4982318;28;20038;-76
2022/07/16 10:06:14;;;;;;;;;;;;;;;30.47;28.67;102519.75;4982269;28;20033;-76
2022/07/16 10:08:40;;;;;;;8.63;1.17;;;;;;;30.94;27.84;102507.53;4981460;28;19914;-77
2022/07/16 10:11:07;;;;;;;3.10;1.00;;;;;;;31.08;27.51;102508.63;4987528;28;20031;-77
2022/07/16 10:13:34;;;;;;;2.72;1.00;;;;;;;30.66;26.97;102506.97;4983426;28;20023;-77
2022/07/16 10:16:00;;;;;;;5.32;1.10;;;;;;;30.70;27.69;102508.09;4985833;28;20419;-77
2022/07/16 10:18:32;;;;;;;2.67;1.30;;;;;;;30.93;27.63;102511.44;4996809;28;20049;-78
2022/07/16 10:21:24;;;;;;;4.85;1.10;;;;;;;31.38;27.33;102523.63;4984660;28;20054;-76
2022/07/16 10:24:07;;;;;;;5.68;1.30;;;;;;;31.66;26.88;102522.13;4984940;28;20054;-77
2022/07/16 10:26:33;;;;;;;3.28;1.00;;;;;;;31.62;26.96;102524.63;4980499;28;20031;-78
2022/07/16 10:28:59;;;;;;;6.67;1.50;;;;;;;31.67;27.05;102524.63;4982722;28;20037;-77
2022/07/16 10:34:39;;;;;;;4.00;1.25;;;;;;;31.59;26.62;102525.22;4987357;28;20049;-78
2022/07/16 10:37:12;;;;;;;11.77;3.33;;;;;;;31.12;27.48;102531.97;4978788;28;20073;-77
2022/07/16 10:39:59;;;;;;;13.73;2.80;;;;;;;30.68;29.03;102532.53;4975987;28;20035;-77
2022/07/16 10:42:24;;;;;;;6.63;1.75;;;;;;;30.77;28.23;102535.59;4984425;28;20636;-77
2022/07/16 10:44:50;;;;;;;7.57;1.47;;;;;;;30.34;28.49;102538.63;4979151;28;20041;-76
2022/07/16 10:47:17;;;;;;;4.93;1.23;;;;;;;30.82;25.99;102538.41;4980996;28;20380;-78
2022/07/16 10:49:42;;;;;;;4.53;1.20;;;;;;;30.54;27.01;102548.06;4985853;28;20031;-77
2022/07/16 10:52:14;;;;;;;9.20;1.05;;;;;;;30.71;27.53;102543.09;4989476;28;20042;-80
2022/07/16 10:54:51;;;;;;;3.15;1.00;;;;;;;30.87;27.12;102554.25;4987489;28;20027;-79
2022/07/16 10:57:17;;;;;;;7.45;1.23;;;;;;;30.81;26.27;102551.47;4985996;28;20038;-77
2022/07/16 10:59:48;;;;;;;4.73;1.10;;;;;;;30.28;27.25;102542.50;4984730;28;20031;-77
2022/07/16 11:02:16;;;;;;;5.05;1.38;;;;;;;30.21;27.45;102550.22;4994629;28;20043;-76
2022/07/16 11:04:46;;;;;;;4.35;1.10;;;;;;;29.92;28.75;102553.44;4978885;28;20026;-79
2022/07/16 11:07:16;;;;;;;4.38;1.10;;;;;;;30.53;27.86;102547.25;4987916;28;20015;-79
2022/07/16 11:09:44;;;;;;;3.72;1.10;;;;;;;30.15;29.05;102543.00;4979194;28;20034;-75
2022/07/16 11:12:16;;;;;;;10.48;1.83;;;;;;;30.38;29.00;102550.81;4980509;28;20121;-76
2022/07/16 11:14:44;;;;;;;5.45;1.50;;;;;;;30.23;29.44;102559.16;4977536;28;20121;-76
2022/07/16 11:17:10;;;;;;;5.72;1.08;;;;;;;30.59;28.33;102560.03;4980842;28;20038;-76
2022/07/16 11:19:37;;;;;;;4.07;0.90;;;;;;;30.69;28.08;102556.44;4981962;28;20031;-76
2022/07/16 11:22:03;;;;;;;6.18;1.60;;;;;;;30.05;28.37;102562.38;4976902;28;20078;-76
2022/07/16 11:24:29;;;;;;;4.77;1.30;;;;;;;29.62;28.90;102558.81;4977010;28;20027;-76
2022/07/16 11:26:55;;;;;;;5.53;1.33;;;;;;;29.14;30.08;102552.41;4974776;28;20422;-76
2022/07/16 11:29:23;;;;;;;8.30;1.30;;;;;;;29.42;29.98;102559.56;4983606;28;20498;-75
2022/07/16 11:31:49;;;;;;;4.28;1.20;;;;;;;29.78;29.02;102566.16;4979288;28;20640;-79
2022/07/16 11:34:16;;;;;;;3.30;1.05;;;;;;;30.22;28.55;102562.97;4987145;28;20043;-76
2022/07/16 11:36:43;;;;;;;7.35;1.30;;;;;;;29.83;29.38;102577.25;4977766;28;20034;-76